Time;durP1;ratioP1;P1;durP2;ratioP2;P2;SDS_P1;SDS_P2;PMS_P1;PMS_P2;Temp;Humidity;BMP_temperature;BMP_pressure;BME280_temperature;BME280_humidity;BME280_pressure;Samples;Min_cycle;Max_cycle;Signal;HPM_P1;HPM_P2
2024/02/21 00:02:41;;;;;;;7.53;2.92;;;;;;;8.01;60.33;100727.94;10519043;28;20465;-56
2024/02/21 00:07:43;;;;;;;4.38;2.38;;;;;;;8.02;60.13;100729.63;10519927;28;20299;-56
2024/02/21 00:12:46;;;;;;;5.70;2.60;;;;;;;8.15;59.96;100730.06;10519581;28;20040;-57
2024/02/21 00:17:48;;;;;;;9.10;3.10;;;;;;;8.06;59.81;100726.91;10519973;28;20119;-51
2024/02/21 00:22:51;;;;;;;5.43;2.25;;;;;;;8.03;59.64;100712.25;10501880;28;20157;-53
2024/02/21 00:27:53;;;;;;;6.50;2.35;;;;;;;7.93;59.96;100716.09;10501697;28;20040;-52
2024/02/21 00:32:55;;;;;;;5.93;2.58;;;;;;;7.95;59.81;100733.38;10519230;28;20488;-54
2024/02/21 00:37:59;;;;;;;4.70;2.35;;;;;;;8.04;59.52;100729.56;10518885;28;20040;-55
2024/02/21 00:43:01;;;;;;;7.97;2.28;;;;;;;7.98;59.63;100743.66;10500722;28;20372;-56
2024/02/21 00:48:04;;;;;;;5.90;2.80;;;;;;;8.03;59.46;100740.91;10518978;28;20052;-51
2024/02/21 00:53:06;;;;;;;4.75;2.42;;;;;;;8.06;59.41;100729.53;10499978;28;20603;-52
2024/02/21 00:58:08;;;;;;;7.85;2.40;;;;;;;7.95;59.56;100717.75;10499882;28;20036;-51
2024/02/21 01:03:10;;;;;;;5.90;2.10;;;;;;;7.97;59.54;100715.94;10517770;28;20040;-54
2024/02/21 01:08:12;;;;;;;5.10;2.08;;;;;;;7.89;59.65;100702.34;10515428;28;20056;-55
2024/02/21 01:13:14;;;;;;;3.65;1.92;;;;;;;7.97;59.34;100699.44;10533382;28;20055;-54
2024/02/21 01:18:16;;;;;;;3.22;1.98;;;;;;;8.01;59.32;100691.47;10499967;28;20040;-50
2024/02/21 01:23:18;;;;;;;5.32;2.75;;;;;;;8.01;59.28;100694.06;10516107;28;20598;-53
2024/02/21 01:28:20;;;;;;;4.47;2.38;;;;;;;7.88;59.30;100669.38;10516599;28;20131;-53
2024/02/21 01:33:24;;;;;;;7.00;2.70;;;;;;;8.01;59.15;100660.22;10515876;28;20431;-49
2024/02/21 01:38:26;;;;;;;4.85;2.38;;;;;;;8.04;59.00;100667.03;10514251;28;20673;-51
2024/02/21 01:43:28;;;;;;;5.85;2.22;;;;;;;7.97;59.07;100663.00;10516669;28;20040;-52
2024/02/21 01:48:30;;;;;;;7.90;2.45;;;;;;;8.03;58.84;100666.22;10517297;28;20083;-54
2024/02/21 01:53:40;;;;;;;8.18;2.05;;;;;;;8.08;58.92;100670.41;10516210;28;20060;-54
2024/02/21 01:58:44;;;;;;;6.38;2.50;;;;;;;8.01;58.88;100657.63;10516051;28;20134;-52
2024/02/21 02:03:46;;;;;;;5.00;2.30;;;;;;;8.01;58.85;100657.63;10497793;28;20066;-55
2024/02/21 02:08:48;;;;;;;3.83;2.00;;;;;;;7.97;58.99;100648.22;10481177;28;20484;-51
2024/02/21 02:13:50;;;;;;;6.20;2.15;;;;;;;7.98;59.15;100631.66;10515940;28;20028;-55
2024/02/21 02:18:53;;;;;;;8.68;1.98;;;;;;;7.86;59.23;100629.53;10493666;28;20416;-52
2024/02/21 02:23:56;;;;;;;2.83;1.70;;;;;;;7.96;59.06;100620.44;10515381;28;20415;-54
2024/02/21 02:28:58;;;;;;;6.70;2.78;;;;;;;7.95;58.96;100615.31;10515196;28;20547;-54
2024/02/21 02:34:00;;;;;;;5.75;2.42;;;;;;;7.92;59.12;100623.22;10515311;28;20048;-54
2024/02/21 02:39:02;;;;;;;6.80;2.08;;;;;;;7.95;59.24;100618.78;10515351;28;20047;-51
2024/02/21 02:44:04;;;;;;;4.35;2.13;;;;;;;8.08;59.11;100607.88;10515394;28;20048;-55
2024/02/21 02:49:06;;;;;;;5.57;2.70;;;;;;;7.92;59.13;100585.00;10514832;28;20047;-51
2024/02/21 02:54:09;;;;;;;4.85;2.50;;;;;;;7.92;59.25;100572.00;10515091;28;20447;-54
2024/02/21 02:59:11;;;;;;;9.80;2.40;;;;;;;7.89;59.09;100572.13;10515243;28;20032;-52
2024/02/21 03:04:40;;;;;;;4.25;1.98;;;;;;;8.01;58.90;100545.59;10514866;28;20560;-52
2024/02/21 03:09:43;;;;;;;5.03;2.10;;;;;;;8.10;58.92;100527.91;10513928;28;20059;-53
2024/02/21 03:14:45;;;;;;;9.05;2.65;;;;;;;8.13;58.67;100538.22;10514433;28;20184;-52
2024/02/21 03:19:48;;;;;;;11.60;2.40;;;;;;;8.00;58.92;100538.69;10491419;28;20039;-52
2024/02/21 03:24:50;;;;;;;7.15;2.70;;;;;;;8.02;58.86;100520.38;10513941;28;20507;-51
2024/02/21 03:29:52;;;;;;;7.30;2.22;;;;;;;8.13;58.92;100517.38;10514964;28;20032;-53
2024/02/21 03:34:54;;;;;;;5.95;2.65;;;;;;;8.19;58.65;100540.59;10522085;28;20052;-52
2024/02/21 03:39:57;;;;;;;7.97;2.63;;;;;;;8.24;58.67;100538.66;10519863;28;20039;-54
2024/02/21 03:44:59;;;;;;;4.47;2.25;;;;;;;8.22;58.68;100543.09;10520912;28;20048;-51
2024/02/21 03:50:01;;;;;;;7.32;1.90;;;;;;;8.16;58.88;100540.72;10518114;28;20135;-53
2024/02/21 03:55:04;;;;;;;8.88;2.58;;;;;;;8.24;58.56;100533.44;10502538;28;20385;-53
2024/02/21 04:00:10;;;;;;;4.47;1.88;;;;;;;8.26;58.56;100529.03;10521183;28;20036;-53
2024/02/21 04:05:16;;;;;;;7.55;2.20;;;;;;;8.25;58.28;100522.94;10519276;28;20139;-50
2024/02/21 04:10:18;;;;;;;7.50;2.30;;;;;;;8.24;58.33;100508.22;10519968;28;20048;-50
2024/02/21 04:15:20;;;;;;;3.60;1.90;;;;;;;8.29;58.27;100503.66;10518380;28;20139;-54
2024/02/21 04:20:23;;;;;;;3.47;1.60;;;;;;;8.40;58.16;100511.91;10535786;27;20496;-51
2024/02/21 04:25:26;;;;;;;6.07;1.70;;;;;;;8.38;58.20;100502.44;10519593;28;20135;-53
2024/02/21 04:30:28;;;;;;;9.40;2.33;;;;;;;8.27;58.12;100483.78;10519597;28;20481;-50
2024/02/21 04:35:30;;;;;;;4.22;2.03;;;;;;;8.31;57.91;100488.81;10519286;28;20052;-54
2024/02/21 04:40:32;;;;;;;4.32;2.15;;;;;;;8.32;57.80;100481.84;10518874;28;20055;-51
2024/02/21 04:45:34;;;;;;;7.32;2.03;;;;;;;8.32;57.90;100492.28;10517314;28;20115;-54
2024/02/21 04:50:36;;;;;;;5.65;1.75;;;;;;;8.28;57.86;100481.13;10518499;28;20362;-51
2024/02/21 04:55:40;;;;;;;6.40;2.25;;;;;;;8.42;57.72;100477.94;10518161;28;20048;-52
2024/02/21 05:00:42;;;;;;;4.53;1.92;;;;;;;8.46;57.62;100469.94;10484145;28;20234;-55
2024/02/21 05:05:44;;;;;;;5.60;1.88;;;;;;;8.33;57.67;100473.13;10518568;28;20055;-56
2024/02/21 05:10:46;;;;;;;5.57;2.42;;;;;;;8.35;57.78;100474.75;10513842;28;20043;-54
2024/02/21 05:15:48;;;;;;;4.28;1.73;;;;;;;8.35;57.69;100476.50;10517433;28;20155;-53
2024/02/21 05:20:50;;;;;;;6.13;1.90;;;;;;;8.35;57.70;100461.72;10517557;28;20080;-54
2024/02/21 05:25:52;;;;;;;5.30;2.22;;;;;;;8.35;57.39;100477.34;10498607;28;20125;-54
2024/02/21 05:30:54;;;;;;;8.68;2.70;;;;;;;8.36;57.34;100453.00;10516761;28;20052;-53
2024/02/21 05:35:56;;;;;;;3.88;1.90;;;;;;;8.38;57.48;100451.19;10517016;28;20442;-54
2024/02/21 05:40:58;;;;;;;6.20;1.88;;;;;;;8.47;57.25;100445.56;10498642;28;20032;-54
2024/02/21 05:46:00;;;;;;;5.38;2.20;;;;;;;8.45;57.28;100428.28;10516429;28;20044;-54
2024/02/21 05:51:03;;;;;;;3.75;1.88;;;;;;;8.41;57.07;100422.38;10498942;28;20047;-56
2024/02/21 05:56:10;;;;;;;5.07;2.03;;;;;;;8.40;57.05;100432.88;10515730;28;20357;-54
2024/02/21 06:01:12;;;;;;;6.53;2.35;;;;;;;8.32;56.96;100445.38;10516395;28;20056;-56
2024/02/21 06:06:14;;;;;;;3.33;1.63;;;;;;;8.37;56.82;100435.59;10497823;28;20074;-54
2024/02/21 06:11:16;;;;;;;5.97;2.60;;;;;;;8.24;56.79;100444.84;10515912;28;20051;-55
2024/02/21 06:16:18;;;;;;;5.57;1.88;;;;;;;8.21;56.80;100431.94;10515458;28;20037;-57
2024/02/21 06:21:20;;;;;;;3.13;1.52;;;;;;;8.32;56.67;100403.69;10514189;28;20059;-55
2024/02/21 06:26:22;;;;;;;3.33;1.77;;;;;;;8.33;56.42;100395.78;10515605;28;20052;-57
2024/02/21 06:31:25;;;;;;;3.40;1.80;;;;;;;8.09;56.76;100390.75;10514728;28;20052;-54
2024/02/21 06:36:27;;;;;;;4.43;1.63;;;;;;;8.01;56.92;100397.13;10515282;28;20048;-52
2024/02/21 06:41:30;;;;;;;2.83;1.60;;;;;;;7.95;57.25;100404.34;10514327;28;20204;-54
2024/02/21 06:46:33;;;;;;;6.43;2.47;;;;;;;7.91;57.08;100408.84;10515177;28;20284;-54
2024/02/21 06:51:37;;;;;;;4.88;2.00;;;;;;;7.86;57.05;100402.13;10514821;28;20403;-52
2024/02/21 06:56:40;;;;;;;2.90;1.88;;;;;;;7.90;57.14;100414.94;10515195;28;20054;-56
2024/02/21 07:01:49;;;;;;;2.42;1.50;;;;;;;8.03;56.94;100410.94;10514522;28;20781;-52
2024/02/21 07:06:51;;;;;;;4.18;1.67;;;;;;;8.08;56.73;100404.69;10499806;28;20052;-52
2024/02/21 07:11:53;;;;;;;7.22;2.13;;;;;;;8.11;56.61;100412.41;10522476;28;20109;-53
2024/02/21 07:16:57;;;;;;;4.95;1.88;;;;;;;8.14;56.57;100426.13;10522659;28;20089;-51
2024/02/21 07:21:59;;;;;;;4.85;1.80;;;;;;;8.28;56.47;100422.97;10522742;28;20438;-54
2024/02/21 07:27:04;;;;;;;8.23;2.47;;;;;;;8.41;56.26;100426.72;10504431;28;20040;-53
2024/02/21 07:32:06;;;;;;;5.15;2.67;;;;;;;8.54;55.86;100412.25;10521613;28;20044;-54
2024/02/21 07:37:08;;;;;;;5.25;1.73;;;;;;;8.60;55.92;100412.84;10522168;28;20048;-53
2024/02/21 07:42:10;;;;;;;3.80;1.80;;;;;;;8.59;55.68;100418.09;10521268;28;20075;-53
2024/02/21 07:47:12;;;;;;;4.40;2.00;;;;;;;8.76;55.48;100407.78;10520639;28;20048;-50
2024/02/21 07:52:14;;;;;;;6.75;2.15;;;;;;;8.85;55.36;100404.78;10520845;28;20055;-55
2024/02/21 07:57:17;;;;;;;4.32;1.88;;;;;;;8.94;55.06;100396.53;10520725;28;20044;-53
2024/02/21 08:02:19;;;;;;;4.10;1.77;;;;;;;9.06;54.92;100393.34;10520840;28;20120;-53
2024/02/21 08:07:21;;;;;;;3.70;1.63;;;;;;;9.11;54.92;100390.53;10519235;28;20066;-54
2024/02/21 08:12:23;;;;;;;4.25;1.75;;;;;;;9.12;54.87;100371.31;10520294;28;20311;-53
2024/02/21 08:17:25;;;;;;;5.65;1.70;;;;;;;9.17;54.60;100367.63;10519739;28;20833;-55
2024/02/21 08:22:27;;;;;;;4.63;2.00;;;;;;;9.18;54.34;100364.06;10520048;28;20152;-54
2024/02/21 08:27:29;;;;;;;6.30;2.25;;;;;;;9.34;54.56;100356.38;10519278;28;20054;-54
2024/02/21 08:32:31;;;;;;;3.30;1.80;;;;;;;9.43;54.13;100355.91;10519199;28;20198;-54
2024/02/21 08:37:33;;;;;;;5.90;2.25;;;;;;;9.54;53.99;100344.03;10519006;28;20109;-55
2024/02/21 08:42:36;;;;;;;4.18;1.70;;;;;;;9.60;53.78;100338.53;10518849;28;20052;-53
2024/02/21 08:47:41;;;;;;;4.63;1.60;;;;;;;9.71;53.30;100321.50;10518671;28;20036;-55
2024/02/21 08:52:43;;;;;;;7.18;2.13;;;;;;;9.89;53.28;100317.97;10518274;28;20048;-53
2024/02/21 08:57:46;;;;;;;5.57;1.80;;;;;;;10.00;52.94;100303.44;10517728;28;20052;-55
2024/02/21 09:02:48;;;;;;;3.33;1.52;;;;;;;10.05;52.50;100306.66;10518317;28;20047;-56
2024/02/21 09:07:50;;;;;;;5.22;1.85;;;;;;;10.23;52.35;100294.41;10516209;28;20420;-51
2024/02/21 09:12:52;;;;;;;6.68;2.78;;;;;;;10.33;52.07;100285.16;10499111;28;20055;-54
2024/02/21 09:17:54;;;;;;;6.88;2.35;;;;;;;10.38;52.01;100285.72;10498094;28;20069;-55
2024/02/21 09:22:56;;;;;;;7.78;1.92;;;;;;;10.52;51.61;100278.84;10511347;28;20368;-55
2024/02/21 09:28:01;;;;;;;5.40;1.70;;;;;;;10.49;51.65;100278.16;10497406;28;20040;-52
2024/02/21 09:33:04;;;;;;;6.82;2.30;;;;;;;10.38;51.42;100270.88;10514603;28;20090;-54
2024/02/21 09:38:07;;;;;;;3.42;1.77;;;;;;;10.81;51.50;100265.94;10496295;28;20036;-53
2024/02/21 09:43:09;;;;;;;8.02;1.95;;;;;;;10.91;50.86;100249.63;10512534;28;20434;-54
2024/02/21 09:48:33;;;;;;;6.82;2.10;;;;;;;10.94;50.56;100235.56;10513718;28;20086;-55
2024/02/21 09:53:45;;;;;;;11.95;2.05;;;;;;;11.00;50.44;100237.81;10515939;28;20051;-55
2024/02/21 09:59:04;;;;;;;7.85;2.00;;;;;;;11.05;50.07;100241.06;10515176;28;20055;-56
2024/02/21 10:04:07;;;;;;;9.10;2.63;;;;;;;11.21;49.91;100234.84;10497565;28;20118;-54
2024/02/21 10:09:20;;;;;;;3.95;1.67;;;;;;;11.29;48.75;100224.78;10472259;28;20044;-56
2024/02/21 10:14:22;;;;;;;4.93;2.17;;;;;;;11.39;49.55;100219.88;10473866;28;20048;-56
2024/02/21 10:19:25;;;;;;;4.03;1.77;;;;;;;11.53;49.62;100201.56;10473551;28;20628;-53
2024/02/21 10:24:28;;;;;;;6.28;2.10;;;;;;;11.32;49.50;100204.59;10474807;28;20048;-56
2024/02/21 10:29:31;;;;;;;8.57;2.50;;;;;;;11.39;49.42;100195.44;10468094;28;20048;-56
2024/02/21 10:34:34;;;;;;;5.05;1.60;;;;;;;11.37;49.46;100199.94;10471062;28;20052;-53
2024/02/21 10:39:40;;;;;;;3.00;1.38;;;;;;;11.65;48.47;100187.72;10475082;28;20053;-55
2024/02/21 10:44:45;;;;;;;5.85;1.55;;;;;;;11.50;48.06;100172.09;10481382;28;20412;-53
2024/02/21 10:49:56;;;;;;;6.05;1.60;;;;;;;11.47;48.43;100180.97;10468349;28;20051;-54
2024/02/21 10:55:03;;;;;;;5.40;1.55;;;;;;;11.61;47.30;100167.03;10481612;28;20048;-54
2024/02/21 11:00:12;;;;;;;6.10;2.00;;;;;;;11.69;48.24;100155.16;10481159;28;20132;-54
2024/02/21 11:05:15;;;;;;;8.77;1.90;;;;;;;11.79;48.14;100152.81;10480847;28;20075;-54
2024/02/21 11:10:23;;;;;;;5.45;2.05;;;;;;;11.90;46.68;100137.28;10504871;28;20051;-57
2024/02/21 11:15:27;;;;;;;5.20;2.22;;;;;;;12.01;48.08;100125.19;10505086;28;20048;-54
2024/02/21 11:20:36;;;;;;;6.07;2.17;;;;;;;11.98;47.21;100124.56;10504443;28;20512;-55
2024/02/21 11:25:38;;;;;;;4.32;1.45;;;;;;;11.74;47.28;100116.44;10522152;28;20048;-55
2024/02/21 11:30:43;;;;;;;4.57;1.48;;;;;;;11.63;47.73;100108.38;10521430;28;20056;-54
2024/02/21 11:35:46;;;;;;;7.03;2.53;;;;;;;11.60;47.26;100095.47;10504046;28;20091;-53
2024/02/21 11:40:48;;;;;;;5.88;1.58;;;;;;;11.46;47.58;100087.59;10521568;28;20048;-52
2024/02/21 11:45:50;;;;;;;7.18;1.60;;;;;;;11.65;46.45;100076.84;10503325;28;20454;-54
2024/02/21 11:50:54;;;;;;;10.75;2.35;;;;;;;11.60;46.00;100068.44;10520131;28;20139;-53
2024/02/21 11:55:57;;;;;;;3.80;1.42;;;;;;;11.90;47.36;100050.81;10503014;28;20498;-52
2024/02/21 12:00:59;;;;;;;4.72;1.55;;;;;;;11.90;46.40;100035.94;10519836;28;20326;-54
2024/02/21 12:06:03;;;;;;;4.53;1.33;;;;;;;12.09;46.43;100014.59;10501133;28;20064;-54
2024/02/21 12:11:17;;;;;;;3.38;1.30;;;;;;;12.07;44.89;100008.63;10518951;28;20434;-55
2024/02/21 12:16:20;;;;;;;7.47;1.40;;;;;;;12.10;46.28;99988.31;10518918;28;20066;-54
2024/02/21 12:21:32;;;;;;;4.43;1.88;;;;;;;12.22;46.05;99964.84;10518826;28;20098;-54
2024/02/21 12:26:34;;;;;;;3.95;1.73;;;;;;;12.17;46.32;99957.28;10500777;28;20062;-55
2024/02/21 12:31:38;;;;;;;4.43;1.35;;;;;;;12.02;46.48;99951.28;10518683;28;20335;-53
2024/02/21 12:36:49;;;;;;;5.70;2.08;;;;;;;12.10;45.19;99958.63;10519335;28;20165;-55
2024/02/21 12:41:51;;;;;;;2.60;1.92;;;;;;;11.85;45.10;99946.28;10533016;28;20052;-55
2024/02/21 12:46:54;;;;;;;4.85;1.40;;;;;;;12.01;44.72;99931.22;10519006;28;20143;-56
2024/02/21 12:51:57;;;;;;;5.43;1.25;;;;;;;12.06;45.47;99915.19;10518917;28;20048;-54
2024/02/21 12:57:02;;;;;;;3.80;1.20;;;;;;;12.22;45.15;99913.25;10481080;28;20047;-57
2024/02/21 13:02:06;;;;;;;2.38;1.08;;;;;;;12.28;45.31;99899.75;10498968;28;20518;-52
2024/02/21 13:07:09;;;;;;;4.72;1.38;;;;;;;12.36;45.35;99881.72;10517999;28;20050;-54
2024/02/21 13:12:12;;;;;;;4.63;1.35;;;;;;;12.54;44.54;99856.00;10533028;27;20071;-55
2024/02/21 13:17:16;;;;;;;5.35;2.20;;;;;;;12.46;44.26;99843.41;10534537;27;20393;-54
2024/02/21 13:22:22;;;;;;;3.88;1.45;;;;;;;12.62;44.77;99837.97;10517575;28;20044;-56
2024/02/21 13:27:24;;;;;;;5.43;1.35;;;;;;;12.89;44.71;99841.28;10516308;28;20051;-54
2024/02/21 13:32:26;;;;;;;2.30;1.17;;;;;;;12.91;44.28;99823.63;10514023;28;20507;-56
2024/02/21 13:37:28;;;;;;;2.65;1.35;;;;;;;12.72;44.46;99813.59;10516643;28;20052;-55
2024/02/21 13:42:31;;;;;;;3.75;1.20;;;;;;;12.62;44.23;99794.19;10513853;28;20086;-55
2024/02/21 13:47:34;;;;;;;3.47;1.20;;;;;;;12.61;44.38;99784.66;10513940;28;20036;-55
2024/02/21 13:52:39;;;;;;;4.25;1.80;;;;;;;12.49;44.20;99768.94;10513686;28;20470;-55
2024/02/21 13:57:41;;;;;;;2.45;1.17;;;;;;;12.51;44.04;99765.25;10498257;28;20044;-56
2024/02/21 14:02:44;;;;;;;5.15;1.70;;;;;;;12.58;44.38;99750.75;10513833;28;20712;-55
2024/02/21 14:07:46;;;;;;;3.38;1.70;;;;;;;12.60;44.18;99743.63;10514879;28;20080;-56
2024/02/21 14:12:48;;;;;;;3.92;2.28;;;;;;;12.67;43.90;99726.50;10495569;28;20428;-54
2024/02/21 14:17:51;;;;;;;4.70;1.85;;;;;;;12.78;44.02;99717.88;10513435;28;20556;-57
2024/02/21 14:22:55;;;;;;;2.70;1.30;;;;;;;12.68;43.88;99690.63;10510828;28;20432;-56
2024/02/21 14:27:58;;;;;;;3.38;1.50;;;;;;;12.76;44.58;99678.59;10513209;28;20040;-56
2024/02/21 14:33:00;;;;;;;4.72;1.90;;;;;;;12.67;44.48;99673.19;10514369;28;20646;-55
2024/02/21 14:38:02;;;;;;;3.10;1.77;;;;;;;12.70;44.68;99655.41;10513742;28;20439;-52
2024/02/21 14:43:04;;;;;;;3.63;1.50;;;;;;;12.49;44.90;99666.63;10514748;28;20044;-55
2024/02/21 14:48:07;;;;;;;4.93;2.00;;;;;;;12.44;44.90;99630.25;10511299;28;20090;-56
2024/02/21 14:53:09;;;;;;;7.75;2.05;;;;;;;12.33;44.79;99631.97;10511016;28;20089;-55
2024/02/21 14:58:12;;;;;;;2.97;1.50;;;;;;;12.35;45.41;99611.72;10512775;28;20732;-55
2024/02/21 15:03:19;;;;;;;6.68;1.80;;;;;;;12.20;44.68;99594.41;10498421;28;20052;-57
2024/02/21 15:08:22;;;;;;;4.75;1.98;;;;;;;12.25;45.62;99587.91;10508339;28;20434;-55
2024/02/21 15:13:25;;;;;;;5.63;1.80;;;;;;;12.17;45.85;99582.41;10510822;28;20052;-53
2024/02/21 15:18:27;;;;;;;3.95;1.55;;;;;;;12.06;46.12;99579.69;10510880;28;20574;-55
2024/02/21 15:23:29;;;;;;;4.00;1.50;;;;;;;11.84;46.21;99563.81;10511661;28;20056;-54
2024/02/21 15:28:31;;;;;;;2.35;1.50;;;;;;;11.82;46.54;99574.41;10500509;28;20048;-54
2024/02/21 15:33:33;;;;;;;3.50;1.45;;;;;;;11.70;46.42;99569.19;10503648;28;20044;-56
2024/02/21 15:38:40;;;;;;;3.40;1.40;;;;;;;11.56;46.58;99561.47;10519853;28;20337;-53
2024/02/21 15:43:45;;;;;;;5.65;1.75;;;;;;;11.65;46.44;99552.94;10521504;28;20051;-55
2024/02/21 15:48:50;;;;;;;4.30;2.00;;;;;;;11.67;46.30;99535.34;10521073;28;20128;-56
2024/02/21 15:53:52;;;;;;;5.47;1.60;;;;;;;11.63;46.47;99523.41;10519808;28;20056;-57
2024/02/21 15:58:55;;;;;;;3.22;1.40;;;;;;;11.62;46.65;99508.66;10519658;28;20055;-56
2024/02/21 16:03:58;;;;;;;3.25;1.70;;;;;;;11.50;46.73;99520.81;10519769;28;20048;-56
2024/02/21 16:09:00;;;;;;;5.50;1.92;;;;;;;11.49;46.80;99506.03;10519957;28;20048;-55
2024/02/21 16:14:02;;;;;;;5.15;2.17;;;;;;;11.26;47.24;99493.72;10485408;28;20048;-55
2024/02/21 16:19:05;;;;;;;5.50;1.40;;;;;;;11.24;47.04;99488.59;10535111;27;20113;-54
2024/02/21 16:24:10;;;;;;;3.28;1.17;;;;;;;11.15;47.20;99470.88;10517943;28;20048;-53
2024/02/21 16:29:13;;;;;;;2.35;1.15;;;;;;;10.91;46.99;99459.47;10533101;27;20094;-55
2024/02/21 16:34:16;;;;;;;2.25;1.25;;;;;;;10.86;47.36;99464.19;10518987;28;20040;-56
2024/02/21 16:39:18;;;;;;;7.20;1.60;;;;;;;10.81;47.22;99450.56;10517411;28;20036;-53
2024/02/21 16:44:20;;;;;;;1.70;1.27;;;;;;;10.70;47.28;99449.66;10518623;28;20043;-55
2024/02/21 16:49:23;;;;;;;3.45;1.48;;;;;;;10.64;47.39;99450.06;10534308;27;20052;-56
2024/02/21 16:54:26;;;;;;;8.60;2.15;;;;;;;10.63;47.30;99433.53;10518759;28;20148;-55
2024/02/21 16:59:28;;;;;;;4.38;1.52;;;;;;;10.65;47.44;99436.88;10518156;28;20132;-53
2024/02/21 17:04:30;;;;;;;2.45;1.42;;;;;;;10.45;47.51;99426.91;10517833;28;20443;-55
2024/02/21 17:09:33;;;;;;;2.75;1.35;;;;;;;10.38;47.32;99423.03;10517599;28;20123;-54
2024/02/21 17:14:35;;;;;;;1.73;1.50;;;;;;;10.31;47.28;99406.94;10517581;28;20138;-55
2024/02/21 17:19:37;;;;;;;2.22;1.05;;;;;;;10.19;47.17;99417.38;10517749;28;20410;-53
2024/02/21 17:24:39;;;;;;;3.47;1.33;;;;;;;10.11;47.29;99406.59;10517400;28;20101;-54
2024/02/21 17:29:42;;;;;;;3.67;1.30;;;;;;;10.10;47.41;99397.91;10516877;28;20575;-54
2024/02/21 17:34:44;;;;;;;3.90;1.60;;;;;;;10.20;47.26;99388.50;10532897;28;20044;-55
2024/02/21 17:39:46;;;;;;;4.47;1.70;;;;;;;10.27;47.30;99383.72;10516910;28;20135;-53
2024/02/21 17:44:48;;;;;;;2.88;1.20;;;;;;;10.33;47.51;99375.47;10515103;28;20048;-54
2024/02/21 17:49:50;;;;;;;2.80;1.42;;;;;;;10.30;47.58;99375.66;10514584;28;20044;-54
2024/02/21 17:54:52;;;;;;;3.30;1.30;;;;;;;10.32;47.50;99376.41;10498610;28;20153;-54
2024/02/21 17:59:54;;;;;;;2.90;1.20;;;;;;;10.33;47.69;99363.25;10516111;28;20039;-54
2024/02/21 18:04:56;;;;;;;4.30;1.80;;;;;;;10.26;47.79;99348.06;10498683;28;20055;-52
2024/02/21 18:09:58;;;;;;;3.65;1.20;;;;;;;10.35;47.67;99339.59;10455999;28;20033;-53
2024/02/21 18:15:02;;;;;;;8.60;1.50;;;;;;;10.29;47.98;99356.56;10505767;28;20055;-54
2024/02/21 18:20:08;;;;;;;6.82;2.22;;;;;;;10.36;48.08;99356.94;10455993;28;20289;-52
2024/02/21 18:25:10;;;;;;;2.90;1.58;;;;;;;10.27;48.04;99339.28;10473808;28;20127;-56
2024/02/21 18:30:14;;;;;;;3.85;1.48;;;;;;;10.24;48.38;99315.97;10473565;28;20129;-54
2024/02/21 18:35:17;;;;;;;1.95;1.45;;;;;;;10.25;48.28;99315.03;10504113;28;20053;-54
2024/02/21 18:40:20;;;;;;;2.28;1.40;;;;;;;10.19;48.27;99297.16;10474393;28;20123;-52
2024/02/21 18:45:22;;;;;;;2.33;1.40;;;;;;;10.18;48.11;99285.88;10474244;28;20076;-54
2024/02/21 18:50:24;;;;;;;2.60;1.20;;;;;;;10.08;48.24;99276.16;10472400;28;20052;-51
2024/02/21 18:55:26;;;;;;;3.65;1.52;;;;;;;10.13;47.70;99256.63;10472740;28;20135;-54
2024/02/21 19:00:28;;;;;;;1.30;1.10;;;;;;;10.11;47.96;99242.00;10473191;28;20068;-52
2024/02/21 19:05:30;;;;;;;3.33;1.40;;;;;;;10.07;48.63;99236.16;10485774;28;20060;-54
2024/02/21 19:10:33;;;;;;;4.00;1.83;;;;;;;10.10;49.11;99216.78;10520999;28;20036;-52
2024/02/21 19:15:36;;;;;;;5.85;2.33;;;;;;;10.14;49.33;99210.41;10487048;28;20134;-54
2024/02/21 19:20:39;;;;;;;13.75;5.97;;;;;;;9.99;50.41;99203.66;10521326;28;20072;-55
2024/02/21 19:25:42;;;;;;;6.50;2.67;;;;;;;9.86;50.79;99187.13;10520243;28;20333;-55
2024/02/21 19:30:45;;;;;;;3.70;1.70;;;;;;;9.75;51.66;99176.59;10521015;28;20129;-54
2024/02/21 19:35:47;;;;;;;2.00;1.42;;;;;;;9.56;52.69;99162.13;10503387;28;20056;-55
2024/02/21 19:40:49;;;;;;;2.20;1.38;;;;;;;9.44;53.63;99147.28;10519220;28;20044;-54
2024/02/21 19:45:53;;;;;;;2.03;1.33;;;;;;;9.34;54.03;99137.59;10519996;28;20184;-53
2024/02/21 19:50:56;;;;;;;3.55;1.90;;;;;;;9.25;54.50;99131.22;10501771;28;20135;-54
2024/02/21 19:55:58;;;;;;;3.25;1.25;;;;;;;9.26;54.98;99117.22;10521885;28;20566;-53
2024/02/21 20:01:01;;;;;;;2.58;1.45;;;;;;;9.12;55.71;99104.28;10503198;28;20044;-54
2024/02/21 20:06:08;;;;;;;3.90;1.75;;;;;;;9.11;55.65;99093.94;10520202;28;20167;-53
2024/02/21 20:11:10;;;;;;;3.45;1.80;;;;;;;9.11;56.12;99071.31;10503218;28;20055;-53
2024/02/21 20:16:12;;;;;;;3.88;1.90;;;;;;;9.08;57.50;99071.50;10519893;28;20515;-55
2024/02/21 20:21:14;;;;;;;2.65;1.73;;;;;;;9.01;57.02;99065.03;10519654;28;20059;-53
2024/02/21 20:26:16;;;;;;;2.63;1.33;;;;;;;9.09;57.20;99060.16;10501046;28;20036;-53
2024/02/21 20:31:20;;;;;;;2.83;1.38;;;;;;;8.86;57.80;99045.19;10519608;28;20142;-53
2024/02/21 20:36:22;;;;;;;2.28;1.25;;;;;;;8.70;58.77;99029.75;10518785;28;20410;-54
2024/02/21 20:41:24;;;;;;;2.97;1.35;;;;;;;8.66;58.87;99027.44;10516399;28;20084;-53
2024/02/21 20:46:27;;;;;;;2.30;1.20;;;;;;;8.78;58.58;99035.28;10519106;28;20051;-52
2024/02/21 20:51:29;;;;;;;2.08;1.20;;;;;;;8.86;58.80;99026.94;10534031;27;20072;-53
2024/02/21 20:56:31;;;;;;;3.15;1.30;;;;;;;8.89;59.10;99024.16;10517425;28;20035;-50
2024/02/21 21:01:33;;;;;;;4.93;1.20;;;;;;;8.87;59.39;99020.81;10501371;28;20039;-52
2024/02/21 21:06:45;;;;;;;5.50;1.40;;;;;;;8.90;59.94;99004.09;10484506;28;20048;-55
2024/02/21 21:11:47;;;;;;;2.70;1.13;;;;;;;8.79;59.76;99002.25;10518004;28;20403;-55
2024/02/21 21:16:49;;;;;;;3.13;1.52;;;;;;;8.72;60.09;98991.38;10516018;28;20212;-54
2024/02/21 21:21:53;;;;;;;3.33;1.58;;;;;;;8.63;60.95;98983.31;10515501;28;20047;-53
2024/02/21 21:26:55;;;;;;;1.95;1.10;;;;;;;8.53;61.52;98982.25;10515684;28;20143;-52
2024/02/21 21:31:57;;;;;;;2.75;1.80;;;;;;;8.57;61.26;98975.91;10516866;28;20123;-54
2024/02/21 21:36:59;;;;;;;1.75;1.20;;;;;;;8.54;61.32;98968.31;10512433;28;20083;-51
2024/02/21 21:42:01;;;;;;;3.05;1.60;;;;;;;8.52;62.09;98955.41;10515926;28;20103;-51
2024/02/21 21:47:07;;;;;;;2.83;1.50;;;;;;;8.51;61.95;98951.09;10512584;28;20058;-50
2024/02/21 21:52:10;;;;;;;3.45;1.50;;;;;;;8.48;62.26;98938.28;10513727;28;20040;-50
2024/02/21 21:57:12;;;;;;;2.20;1.10;;;;;;;8.54;62.38;98937.03;10483387;28;20381;-52
2024/02/21 22:02:14;;;;;;;3.38;1.38;;;;;;;8.47;62.59;98926.19;10514697;28;20131;-50
2024/02/21 22:07:16;;;;;;;2.10;1.30;;;;;;;8.43;63.29;98921.28;10514624;28;20055;-49
2024/02/21 22:12:18;;;;;;;1.85;1.20;;;;;;;8.42;63.02;98904.84;10495193;28;20043;-54
2024/02/21 22:17:20;;;;;;;3.50;1.52;;;;;;;8.49;62.78;98907.84;10496961;28;20044;-51
2024/02/21 22:22:26;;;;;;;1.85;1.35;;;;;;;8.45;63.67;98896.78;10497204;28;20056;-50
2024/02/21 22:27:28;;;;;;;2.10;1.15;;;;;;;8.36;63.69;98889.63;10515610;28;20055;-52
2024/02/21 22:32:30;;;;;;;1.33;1.02;;;;;;;8.53;63.32;98878.03;10515369;28;20047;-53
2024/02/21 22:37:32;;;;;;;2.33;1.63;;;;;;;8.54;63.36;98870.13;10501007;28;20040;-52
2024/02/21 22:42:34;;;;;;;2.22;1.20;;;;;;;8.59;63.26;98856.75;10499566;28;20047;-53
2024/02/21 22:47:36;;;;;;;2.03;1.50;;;;;;;8.56;63.46;98855.22;10523596;28;20150;-51
2024/02/21 22:52:38;;;;;;;1.73;1.10;;;;;;;8.59;63.26;98848.94;10505897;28;20043;-55
2024/02/21 22:57:42;;;;;;;1.75;1.13;;;;;;;8.57;63.73;98835.19;10523005;28;20560;-55
2024/02/21 23:02:45;;;;;;;1.63;1.13;;;;;;;8.59;63.75;98823.72;10536999;27;20126;-62
2024/02/21 23:07:49;;;;;;;2.47;1.15;;;;;;;8.52;64.28;98817.28;10504494;28;20467;-62
2024/02/21 23:12:52;;;;;;;1.63;0.98;;;;;;;8.63;63.79;98800.88;10538785;27;20135;-62
2024/02/21 23:17:54;;;;;;;1.17;0.95;;;;;;;8.58;64.01;98789.97;10522067;28;20407;-62
2024/02/21 23:22:56;;;;;;;1.10;1.00;;;;;;;8.57;64.03;98791.72;10521214;28;20044;-62
2024/02/21 23:27:58;;;;;;;1.77;1.00;;;;;;;8.59;64.20;98775.97;10520915;28;20097;-62